sensor_id;sensor_type;location;lat;lon;timestamp;temperature;humidity
8103;DHT22;4094;49.948;11.574;2022-12-26T00:01:43;11.40;76.10
8103;DHT22;4094;49.948;11.574;2022-12-26T00:04:14;11.40;76.00
8103;DHT22;4094;49.948;11.574;2022-12-26T00:07:03;11.40;76.00
8103;DHT22;4094;49.948;11.574;2022-12-26T00:09:32;11.40;76.00
8103;DHT22;4094;49.948;11.574;2022-12-26T00:12:01;11.40;76.00
8103;DHT22;4094;49.948;11.574;2022-12-26T00:14:32;11.40;76.00
8103;DHT22;4094;49.948;11.574;2022-12-26T00:17:01;11.40;76.00
8103;DHT22;4094;49.948;11.574;2022-12-26T00:19:30;11.40;75.90
8103;DHT22;4094;49.948;11.574;2022-12-26T00:21:59;11.40;75.90
8103;DHT22;4094;49.948;11.574;2022-12-26T00:24:28;11.40;75.90
8103;DHT22;4094;49.948;11.574;2022-12-26T00:26:58;11.40;76.00
8103;DHT22;4094;49.948;11.574;2022-12-26T00:29:27;11.50;76.00
8103;DHT22;4094;49.948;11.574;2022-12-26T00:31:57;11.50;76.00
8103;DHT22;4094;49.948;11.574;2022-12-26T00:34:26;11.50;76.00
8103;DHT22;4094;49.948;11.574;2022-12-26T00:36:55;11.50;76.00
8103;DHT22;4094;49.948;11.574;2022-12-26T00:39:26;11.50;76.00
8103;DHT22;4094;49.948;11.574;2022-12-26T00:41:55;11.50;76.10
8103;DHT22;4094;49.948;11.574;2022-12-26T00:44:24;11.50;76.00
8103;DHT22;4094;49.948;11.574;2022-12-26T00:46:53;11.50;76.10
8103;DHT22;4094;49.948;11.574;2022-12-26T00:49:23;11.50;76.00
8103;DHT22;4094;49.948;11.574;2022-12-26T00:51:52;11.50;76.00
8103;DHT22;4094;49.948;11.574;2022-12-26T00:54:21;11.50;76.00
8103;DHT22;4094;49.948;11.574;2022-12-26T00:56:50;11.50;76.00
8103;DHT22;4094;49.948;11.574;2022-12-26T00:59:19;11.50;76.00
8103;DHT22;4094;49.948;11.574;2022-12-26T01:01:48;11.50;76.00
8103;DHT22;4094;49.948;11.574;2022-12-26T01:04:17;11.60;76.10
8103;DHT22;4094;49.948;11.574;2022-12-26T01:06:47;11.60;76.10
8103;DHT22;4094;49.948;11.574;2022-12-26T01:09:16;11.60;76.10
8103;DHT22;4094;49.948;11.574;2022-12-26T01:11:45;11.60;76.10
8103;DHT22;4094;49.948;11.574;2022-12-26T01:14:16;11.60;76.10
8103;DHT22;4094;49.948;11.574;2022-12-26T01:16:46;11.60;76.20
8103;DHT22;4094;49.948;11.574;2022-12-26T01:19:15;11.60;76.20
8103;DHT22;4094;49.948;11.574;2022-12-26T01:21:44;11.60;76.20
8103;DHT22;4094;49.948;11.574;2022-12-26T01:24:14;11.70;76.30
8103;DHT22;4094;49.948;11.574;2022-12-26T01:26:43;11.70;76.30
8103;DHT22;4094;49.948;11.574;2022-12-26T01:29:12;11.70;76.30
8103;DHT22;4094;49.948;11.574;2022-12-26T01:31:41;11.70;76.20
8103;DHT22;4094;49.948;11.574;2022-12-26T01:34:10;11.70;76.10
8103;DHT22;4094;49.948;11.574;2022-12-26T01:36:39;11.70;76.00
8103;DHT22;4094;49.948;11.574;2022-12-26T01:39:08;11.70;76.00
8103;DHT22;4094;49.948;11.574;2022-12-26T01:41:38;11.70;76.10
8103;DHT22;4094;49.948;11.574;2022-12-26T01:47:09;11.70;76.10
8103;DHT22;4094;49.948;11.574;2022-12-26T01:49:41;11.70;76.00
8103;DHT22;4094;49.948;11.574;2022-12-26T01:52:15;11.70;76.00
8103;DHT22;4094;49.948;11.574;2022-12-26T01:54:47;11.70;76.00
8103;DHT22;4094;49.948;11.574;2022-12-26T01:57:21;11.70;76.10
8103;DHT22;4094;49.948;11.574;2022-12-26T01:59:52;11.70;76.10
8103;DHT22;4094;49.948;11.574;2022-12-26T02:02:23;11.70;76.10
8103;DHT22;4094;49.948;11.574;2022-12-26T02:04:55;11.70;76.10
8103;DHT22;4094;49.948;11.574;2022-12-26T02:07:45;11.70;76.10
8103;DHT22;4094;49.948;11.574;2022-12-26T02:10:17;11.70;76.10
8103;DHT22;4094;49.948;11.574;2022-12-26T02:12:50;11.70;76.10
8103;DHT22;4094;49.948;11.574;2022-12-26T02:15:19;11.70;76.00
8103;DHT22;4094;49.948;11.574;2022-12-26T02:17:48;11.70;76.00
8103;DHT22;4094;49.948;11.574;2022-12-26T02:20:18;11.70;75.90
8103;DHT22;4094;49.948;11.574;2022-12-26T02:29:27;11.70;76.00
8103;DHT22;4094;49.948;11.574;2022-12-26T02:32:08;11.70;76.00
8103;DHT22;4094;49.948;11.574;2022-12-26T02:34:49;11.70;76.00
8103;DHT22;4094;49.948;11.574;2022-12-26T02:37:37;11.70;76.00
8103;DHT22;4094;49.948;11.574;2022-12-26T02:43:05;11.70;76.00
8103;DHT22;4094;49.948;11.574;2022-12-26T02:45:42;11.70;76.00
8103;DHT22;4094;49.948;11.574;2022-12-26T02:48:37;11.70;76.00
8103;DHT22;4094;49.948;11.574;2022-12-26T02:51:16;11.70;76.00
8103;DHT22;4094;49.948;11.574;2022-12-26T02:54:11;11.70;76.00
8103;DHT22;4094;49.948;11.574;2022-12-26T02:57:18;11.70;76.00
8103;DHT22;4094;49.948;11.574;2022-12-26T03:00:07;11.80;76.00
8103;DHT22;4094;49.948;11.574;2022-12-26T03:03:00;11.80;76.00
8103;DHT22;4094;49.948;11.574;2022-12-26T03:05:54;11.80;76.00
8103;DHT22;4094;49.948;11.574;2022-12-26T03:08:47;11.80;76.00
8103;DHT22;4094;49.948;11.574;2022-12-26T03:11:38;11.80;76.00
8103;DHT22;4094;49.948;11.574;2022-12-26T03:14:27;11.80;75.90
8103;DHT22;4094;49.948;11.574;2022-12-26T03:17:00;11.80;75.80
8103;DHT22;4094;49.948;11.574;2022-12-26T03:19:51;11.80;75.70
8103;DHT22;4094;49.948;11.574;2022-12-26T03:22:34;11.80;75.80
8103;DHT22;4094;49.948;11.574;2022-12-26T03:25:06;11.80;75.80
8103;DHT22;4094;49.948;11.574;2022-12-26T03:27:53;11.80;75.60
8103;DHT22;4094;49.948;11.574;2022-12-26T03:30:22;11.80;76.40
8103;DHT22;4094;49.948;11.574;2022-12-26T03:33:09;11.90;75.70
8103;DHT22;4094;49.948;11.574;2022-12-26T03:35:52;11.90;75.60
8103;DHT22;4094;49.948;11.574;2022-12-26T03:38:27;11.90;75.60
8103;DHT22;4094;49.948;11.574;2022-12-26T03:41:06;11.90;75.60
8103;DHT22;4094;49.948;11.574;2022-12-26T03:44:06;11.90;76.40
8103;DHT22;4094;49.948;11.574;2022-12-26T03:47:04;11.90;75.70
8103;DHT22;4094;49.948;11.574;2022-12-26T03:49:58;11.90;75.60
8103;DHT22;4094;49.948;11.574;2022-12-26T03:52:51;11.90;75.50
8103;DHT22;4094;49.948;11.574;2022-12-26T03:55:51;12.00;75.60
8103;DHT22;4094;49.948;11.574;2022-12-26T03:58:44;12.00;75.50
8103;DHT22;4094;49.948;11.574;2022-12-26T04:01:34;12.00;75.50
8103;DHT22;4094;49.948;11.574;2022-12-26T04:04:24;12.00;75.50
8103;DHT22;4094;49.948;11.574;2022-12-26T04:07:15;12.00;75.50
8103;DHT22;4094;49.948;11.574;2022-12-26T04:10:26;12.00;75.50
8103;DHT22;4094;49.948;11.574;2022-12-26T04:13:19;12.10;75.60
8103;DHT22;4094;49.948;11.574;2022-12-26T04:16:14;12.10;75.50
8103;DHT22;4094;49.948;11.574;2022-12-26T04:19:10;12.10;75.50
8103;DHT22;4094;49.948;11.574;2022-12-26T04:21:59;12.10;75.60
8103;DHT22;4094;49.948;11.574;2022-12-26T04:24:51;12.10;75.60
8103;DHT22;4094;49.948;11.574;2022-12-26T04:27:39;12.10;75.60
8103;DHT22;4094;49.948;11.574;2022-12-26T04:30:28;12.10;75.70
8103;DHT22;4094;49.948;11.574;2022-12-26T04:33:21;12.10;75.80
8103;DHT22;4094;49.948;11.574;2022-12-26T04:36:15;12.10;75.90
8103;DHT22;4094;49.948;11.574;2022-12-26T04:39:05;12.10;75.90
8103;DHT22;4094;49.948;11.574;2022-12-26T04:41:55;12.10;75.90
8103;DHT22;4094;49.948;11.574;2022-12-26T04:44:42;12.00;75.90
8103;DHT22;4094;49.948;11.574;2022-12-26T04:47:14;12.10;76.00
8103;DHT22;4094;49.948;11.574;2022-12-26T04:49:44;12.10;76.00
8103;DHT22;4094;49.948;11.574;2022-12-26T04:52:31;12.10;76.10
8103;DHT22;4094;49.948;11.574;2022-12-26T04:55:14;12.10;76.10
8103;DHT22;4094;49.948;11.574;2022-12-26T04:57:44;12.10;76.10
8103;DHT22;4094;49.948;11.574;2022-12-26T05:00:14;12.10;76.00
8103;DHT22;4094;49.948;11.574;2022-12-26T05:02:44;12.10;76.00
8103;DHT22;4094;49.948;11.574;2022-12-26T05:05:36;12.10;76.00
8103;DHT22;4094;49.948;11.574;2022-12-26T05:08:40;12.10;76.10
8103;DHT22;4094;49.948;11.574;2022-12-26T05:11:28;12.10;76.10
8103;DHT22;4094;49.948;11.574;2022-12-26T05:13:59;12.10;76.10
8103;DHT22;4094;49.948;11.574;2022-12-26T05:16:28;12.10;76.10
8103;DHT22;4094;49.948;11.574;2022-12-26T05:19:16;12.10;76.90
8103;DHT22;4094;49.948;11.574;2022-12-26T05:22:03;12.20;76.40
8103;DHT22;4094;49.948;11.574;2022-12-26T05:24:51;12.10;76.30
8103;DHT22;4094;49.948;11.574;2022-12-26T05:27:41;12.10;76.30
8103;DHT22;4094;49.948;11.574;2022-12-26T05:30:42;12.10;76.40
8103;DHT22;4094;49.948;11.574;2022-12-26T05:33:11;12.10;76.50
8103;DHT22;4094;49.948;11.574;2022-12-26T05:35:59;12.10;76.50
8103;DHT22;4094;49.948;11.574;2022-12-26T05:38:28;12.10;76.40
8103;DHT22;4094;49.948;11.574;2022-12-26T05:40:57;12.20;76.50
8103;DHT22;4094;49.948;11.574;2022-12-26T05:43:27;12.10;76.50
8103;DHT22;4094;49.948;11.574;2022-12-26T05:45:56;12.20;76.50
8103;DHT22;4094;49.948;11.574;2022-12-26T05:48:25;12.20;76.50
8103;DHT22;4094;49.948;11.574;2022-12-26T05:50:57;12.20;76.50
8103;DHT22;4094;49.948;11.574;2022-12-26T05:53:28;12.20;76.60
8103;DHT22;4094;49.948;11.574;2022-12-26T05:56:01;12.20;76.50
8103;DHT22;4094;49.948;11.574;2022-12-26T05:58:31;12.20;76.50
8103;DHT22;4094;49.948;11.574;2022-12-26T06:01:06;12.20;76.40
8103;DHT22;4094;49.948;11.574;2022-12-26T06:03:35;12.20;76.50
8103;DHT22;4094;49.948;11.574;2022-12-26T06:06:05;12.20;76.40
8103;DHT22;4094;49.948;11.574;2022-12-26T06:08:36;12.20;76.40
8103;DHT22;4094;49.948;11.574;2022-12-26T06:11:07;12.20;76.30
8103;DHT22;4094;49.948;11.574;2022-12-26T06:13:37;12.20;76.30
8103;DHT22;4094;49.948;11.574;2022-12-26T06:16:06;12.20;76.30
8103;DHT22;4094;49.948;11.574;2022-12-26T06:18:36;12.20;76.30
8103;DHT22;4094;49.948;11.574;2022-12-26T06:21:08;12.20;76.20
8103;DHT22;4094;49.948;11.574;2022-12-26T06:23:39;12.20;76.20
8103;DHT22;4094;49.948;11.574;2022-12-26T06:26:08;12.20;76.30
8103;DHT22;4094;49.948;11.574;2022-12-26T06:28:39;12.20;76.20
8103;DHT22;4094;49.948;11.574;2022-12-26T06:31:11;12.20;76.30
8103;DHT22;4094;49.948;11.574;2022-12-26T06:33:41;12.20;76.30
8103;DHT22;4094;49.948;11.574;2022-12-26T06:36:12;12.20;76.10
8103;DHT22;4094;49.948;11.574;2022-12-26T06:38:43;12.20;76.30
8103;DHT22;4094;49.948;11.574;2022-12-26T06:41:14;12.20;76.30
8103;DHT22;4094;49.948;11.574;2022-12-26T06:43:43;12.20;76.20
8103;DHT22;4094;49.948;11.574;2022-12-26T06:46:14;12.20;76.20
8103;DHT22;4094;49.948;11.574;2022-12-26T06:48:44;12.20;76.20
8103;DHT22;4094;49.948;11.574;2022-12-26T06:51:14;12.20;76.10
8103;DHT22;4094;49.948;11.574;2022-12-26T06:53:45;12.20;76.20
8103;DHT22;4094;49.948;11.574;2022-12-26T06:56:16;12.20;76.10
8103;DHT22;4094;49.948;11.574;2022-12-26T06:58:46;12.20;76.10
8103;DHT22;4094;49.948;11.574;2022-12-26T07:01:17;12.20;76.10
8103;DHT22;4094;49.948;11.574;2022-12-26T07:03:47;12.20;76.20
8103;DHT22;4094;49.948;11.574;2022-12-26T07:06:21;12.20;76.00
8103;DHT22;4094;49.948;11.574;2022-12-26T07:08:54;12.20;76.00
8103;DHT22;4094;49.948;11.574;2022-12-26T07:11:26;12.30;76.00
8103;DHT22;4094;49.948;11.574;2022-12-26T07:13:56;12.30;75.90
8103;DHT22;4094;49.948;11.574;2022-12-26T07:16:25;12.30;75.90
8103;DHT22;4094;49.948;11.574;2022-12-26T07:18:56;12.30;75.80
8103;DHT22;4094;49.948;11.574;2022-12-26T07:21:27;12.30;75.90
8103;DHT22;4094;49.948;11.574;2022-12-26T07:24:08;12.30;75.80
8103;DHT22;4094;49.948;11.574;2022-12-26T07:26:41;12.30;75.90
8103;DHT22;4094;49.948;11.574;2022-12-26T07:29:11;12.30;75.80
8103;DHT22;4094;49.948;11.574;2022-12-26T07:31:41;12.30;75.80
8103;DHT22;4094;49.948;11.574;2022-12-26T07:34:10;12.20;75.60
8103;DHT22;4094;49.948;11.574;2022-12-26T07:36:40;12.30;75.80
8103;DHT22;4094;49.948;11.574;2022-12-26T07:39:12;12.30;75.90
8103;DHT22;4094;49.948;11.574;2022-12-26T07:41:42;12.30;75.90
8103;DHT22;4094;49.948;11.574;2022-12-26T07:44:27;12.30;75.90
8103;DHT22;4094;49.948;11.574;2022-12-26T07:46:58;12.30;75.90
8103;DHT22;4094;49.948;11.574;2022-12-26T07:49:27;12.20;75.90
8103;DHT22;4094;49.948;11.574;2022-12-26T07:51:56;12.30;76.00
8103;DHT22;4094;49.948;11.574;2022-12-26T07:54:27;12.30;76.10
8103;DHT22;4094;49.948;11.574;2022-12-26T07:56:59;12.30;76.10
8103;DHT22;4094;49.948;11.574;2022-12-26T07:59:48;12.30;76.10
8103;DHT22;4094;49.948;11.574;2022-12-26T08:02:22;12.40;76.20
8103;DHT22;4094;49.948;11.574;2022-12-26T08:04:51;12.40;76.20
8103;DHT22;4094;49.948;11.574;2022-12-26T08:07:20;12.50;76.20
8103;DHT22;4094;49.948;11.574;2022-12-26T08:09:51;12.60;76.10
8103;DHT22;4094;49.948;11.574;2022-12-26T08:12:20;12.70;76.00
8103;DHT22;4094;49.948;11.574;2022-12-26T08:14:51;12.70;75.90
8103;DHT22;4094;49.948;11.574;2022-12-26T08:17:20;12.80;75.70
8103;DHT22;4094;49.948;11.574;2022-12-26T08:19:50;12.80;75.60
8103;DHT22;4094;49.948;11.574;2022-12-26T08:22:19;12.90;75.50
8103;DHT22;4094;49.948;11.574;2022-12-26T08:24:48;13.00;75.50
8103;DHT22;4094;49.948;11.574;2022-12-26T08:27:18;13.00;75.30
8103;DHT22;4094;49.948;11.574;2022-12-26T08:29:47;13.10;75.20
8103;DHT22;4094;49.948;11.574;2022-12-26T08:32:16;13.10;75.00
8103;DHT22;4094;49.948;11.574;2022-12-26T08:34:46;13.20;74.90
8103;DHT22;4094;49.948;11.574;2022-12-26T08:37:15;13.20;74.80
8103;DHT22;4094;49.948;11.574;2022-12-26T08:39:44;13.30;74.80
8103;DHT22;4094;49.948;11.574;2022-12-26T08:42:13;13.30;74.50
8103;DHT22;4094;49.948;11.574;2022-12-26T08:44:43;13.40;74.50
8103;DHT22;4094;49.948;11.574;2022-12-26T08:47:13;13.40;74.30
8103;DHT22;4094;49.948;11.574;2022-12-26T08:49:42;13.50;74.30
8103;DHT22;4094;49.948;11.574;2022-12-26T08:52:11;13.50;74.20
8103;DHT22;4094;49.948;11.574;2022-12-26T08:54:40;13.50;74.10
8103;DHT22;4094;49.948;11.574;2022-12-26T08:57:10;13.50;74.10
8103;DHT22;4094;49.948;11.574;2022-12-26T08:59:38;13.60;74.10
8103;DHT22;4094;49.948;11.574;2022-12-26T09:02:10;13.60;74.10
8103;DHT22;4094;49.948;11.574;2022-12-26T09:04:39;13.60;74.20
8103;DHT22;4094;49.948;11.574;2022-12-26T09:07:08;13.60;74.50
8103;DHT22;4094;49.948;11.574;2022-12-26T09:09:38;13.60;74.70
8103;DHT22;4094;49.948;11.574;2022-12-26T09:12:07;13.60;74.90
8103;DHT22;4094;49.948;11.574;2022-12-26T09:14:36;13.60;75.20
8103;DHT22;4094;49.948;11.574;2022-12-26T09:17:05;13.60;75.30
8103;DHT22;4094;49.948;11.574;2022-12-26T09:19:35;13.60;75.50
8103;DHT22;4094;49.948;11.574;2022-12-26T09:22:04;13.60;75.70
8103;DHT22;4094;49.948;11.574;2022-12-26T09:24:51;13.60;75.80
8103;DHT22;4094;49.948;11.574;2022-12-26T09:27:21;13.60;76.00
8103;DHT22;4094;49.948;11.574;2022-12-26T09:29:54;13.60;76.00
8103;DHT22;4094;49.948;11.574;2022-12-26T09:32:23;13.60;76.00
8103;DHT22;4094;49.948;11.574;2022-12-26T09:34:54;13.70;75.90
8103;DHT22;4094;49.948;11.574;2022-12-26T09:37:24;13.70;76.00
8103;DHT22;4094;49.948;11.574;2022-12-26T09:39:53;13.70;76.20
8103;DHT22;4094;49.948;11.574;2022-12-26T09:42:28;13.60;76.00
8103;DHT22;4094;49.948;11.574;2022-12-26T09:45:07;13.70;76.20
8103;DHT22;4094;49.948;11.574;2022-12-26T09:47:44;13.70;76.30
8103;DHT22;4094;49.948;11.574;2022-12-26T09:50:23;13.70;76.40
8103;DHT22;4094;49.948;11.574;2022-12-26T09:52:56;13.70;76.50
8103;DHT22;4094;49.948;11.574;2022-12-26T09:55:37;13.60;76.40
8103;DHT22;4094;49.948;11.574;2022-12-26T09:58:17;13.60;76.50
8103;DHT22;4094;49.948;11.574;2022-12-26T10:00:51;13.60;76.70
8103;DHT22;4094;49.948;11.574;2022-12-26T10:03:22;13.60;76.70
8103;DHT22;4094;49.948;11.574;2022-12-26T10:06:06;13.60;76.70
8103;DHT22;4094;49.948;11.574;2022-12-26T10:08:50;13.60;77.00
8103;DHT22;4094;49.948;11.574;2022-12-26T10:11:32;13.60;77.00
8103;DHT22;4094;49.948;11.574;2022-12-26T10:14:06;13.50;77.00
8103;DHT22;4094;49.948;11.574;2022-12-26T10:16:49;13.50;77.00
8103;DHT22;4094;49.948;11.574;2022-12-26T10:19:38;13.50;77.10
8103;DHT22;4094;49.948;11.574;2022-12-26T10:25:13;13.50;77.30
8103;DHT22;4094;49.948;11.574;2022-12-26T10:27:46;13.50;77.30
8103;DHT22;4094;49.948;11.574;2022-12-26T10:30:22;13.50;77.30
8103;DHT22;4094;49.948;11.574;2022-12-26T10:32:56;13.50;77.30
8103;DHT22;4094;49.948;11.574;2022-12-26T10:35:30;13.50;77.80
8103;DHT22;4094;49.948;11.574;2022-12-26T10:38:05;13.50;77.40
8103;DHT22;4094;49.948;11.574;2022-12-26T10:40:43;13.40;77.50
8103;DHT22;4094;49.948;11.574;2022-12-26T10:43:26;13.40;77.60
8103;DHT22;4094;49.948;11.574;2022-12-26T10:48:55;13.40;78.00
8103;DHT22;4094;49.948;11.574;2022-12-26T10:51:25;13.40;77.80
8103;DHT22;4094;49.948;11.574;2022-12-26T10:53:56;13.40;77.80
8103;DHT22;4094;49.948;11.574;2022-12-26T10:56:25;13.40;77.90
8103;DHT22;4094;49.948;11.574;2022-12-26T10:59:00;13.40;78.10
8103;DHT22;4094;49.948;11.574;2022-12-26T11:01:34;13.40;78.10
8103;DHT22;4094;49.948;11.574;2022-12-26T11:04:08;13.40;78.30
8103;DHT22;4094;49.948;11.574;2022-12-26T11:06:50;13.40;78.30
8103;DHT22;4094;49.948;11.574;2022-12-26T11:09:39;13.40;78.40
8103;DHT22;4094;49.948;11.574;2022-12-26T11:12:18;13.40;78.60
8103;DHT22;4094;49.948;11.574;2022-12-26T11:14:49;13.40;78.60
8103;DHT22;4094;49.948;11.574;2022-12-26T11:17:25;13.40;78.50
8103;DHT22;4094;49.948;11.574;2022-12-26T11:20:15;13.40;78.70
8103;DHT22;4094;49.948;11.574;2022-12-26T11:22:49;13.40;78.80
8103;DHT22;4094;49.948;11.574;2022-12-26T11:25:22;13.40;78.60
8103;DHT22;4094;49.948;11.574;2022-12-26T11:27:53;13.40;78.60
8103;DHT22;4094;49.948;11.574;2022-12-26T11:30:26;13.40;78.70
8103;DHT22;4094;49.948;11.574;2022-12-26T11:33:11;13.50;78.70
8103;DHT22;4094;49.948;11.574;2022-12-26T11:35:48;13.40;78.90
8103;DHT22;4094;49.948;11.574;2022-12-26T11:38:19;13.50;78.90
8103;DHT22;4094;49.948;11.574;2022-12-26T11:41:16;13.50;78.80
8103;DHT22;4094;49.948;11.574;2022-12-26T11:44:16;13.50;78.70
8103;DHT22;4094;49.948;11.574;2022-12-26T11:46:50;13.50;78.90
8103;DHT22;4094;49.948;11.574;2022-12-26T11:49:25;13.50;78.90
8103;DHT22;4094;49.948;11.574;2022-12-26T11:51:56;13.50;78.90
8103;DHT22;4094;49.948;11.574;2022-12-26T11:54:46;13.50;78.90
8103;DHT22;4094;49.948;11.574;2022-12-26T11:57:20;13.50;78.80
8103;DHT22;4094;49.948;11.574;2022-12-26T11:59:50;13.50;78.70
8103;DHT22;4094;49.948;11.574;2022-12-26T12:02:24;13.50;78.70
8103;DHT22;4094;49.948;11.574;2022-12-26T12:04:58;13.50;78.70
8103;DHT22;4094;49.948;11.574;2022-12-26T12:07:48;13.50;78.60
8103;DHT22;4094;49.948;11.574;2022-12-26T12:10:44;13.50;78.70
8103;DHT22;4094;49.948;11.574;2022-12-26T12:13:29;13.50;78.60
8103;DHT22;4094;49.948;11.574;2022-12-26T12:16:19;13.50;78.60
8103;DHT22;4094;49.948;11.574;2022-12-26T12:18:58;13.50;78.60
8103;DHT22;4094;49.948;11.574;2022-12-26T12:21:34;13.50;78.60
8103;DHT22;4094;49.948;11.574;2022-12-26T12:24:30;13.40;78.40
8103;DHT22;4094;49.948;11.574;2022-12-26T12:27:04;13.50;78.70
8103;DHT22;4094;49.948;11.574;2022-12-26T12:29:47;13.50;78.40
8103;DHT22;4094;49.948;11.574;2022-12-26T12:32:28;13.40;78.30
8103;DHT22;4094;49.948;11.574;2022-12-26T12:35:17;13.50;78.30
8103;DHT22;4094;49.948;11.574;2022-12-26T12:38:01;13.40;78.10
8103;DHT22;4094;49.948;11.574;2022-12-26T12:40:39;13.50;78.10
8103;DHT22;4094;49.948;11.574;2022-12-26T12:43:15;13.50;78.10
8103;DHT22;4094;49.948;11.574;2022-12-26T12:45:56;13.40;78.20
8103;DHT22;4094;49.948;11.574;2022-12-26T12:48:44;13.40;78.00
8103;DHT22;4094;49.948;11.574;2022-12-26T12:51:22;13.50;78.10
8103;DHT22;4094;49.948;11.574;2022-12-26T12:54:12;13.50;77.90
8103;DHT22;4094;49.948;11.574;2022-12-26T12:56:47;13.50;77.80
8103;DHT22;4094;49.948;11.574;2022-12-26T12:59:25;13.50;77.80
8103;DHT22;4094;49.948;11.574;2022-12-26T13:02:03;13.50;77.80
8103;DHT22;4094;49.948;11.574;2022-12-26T13:04:42;13.40;77.70
8103;DHT22;4094;49.948;11.574;2022-12-26T13:07:19;13.50;77.80
8103;DHT22;4094;49.948;11.574;2022-12-26T13:09:53;13.50;77.80
8103;DHT22;4094;49.948;11.574;2022-12-26T13:12:27;13.50;77.80
8103;DHT22;4094;49.948;11.574;2022-12-26T13:15:04;13.50;77.70
8103;DHT22;4094;49.948;11.574;2022-12-26T13:17:38;13.50;78.40
8103;DHT22;4094;49.948;11.574;2022-12-26T13:20:14;13.50;77.60
8103;DHT22;4094;49.948;11.574;2022-12-26T13:22:48;13.50;77.70
8103;DHT22;4094;49.948;11.574;2022-12-26T13:25:42;13.50;77.60
8103;DHT22;4094;49.948;11.574;2022-12-26T13:28:16;13.50;77.70
8103;DHT22;4094;49.948;11.574;2022-12-26T13:30:51;13.40;77.70
8103;DHT22;4094;49.948;11.574;2022-12-26T13:33:23;13.40;77.70
8103;DHT22;4094;49.948;11.574;2022-12-26T13:35:55;13.40;77.70
8103;DHT22;4094;49.948;11.574;2022-12-26T13:39:12;13.40;77.90
8103;DHT22;4094;49.948;11.574;2022-12-26T13:41:23;13.40;78.00
8103;DHT22;4094;49.948;11.574;2022-12-26T13:44:23;13.40;78.10
8103;DHT22;4094;49.948;11.574;2022-12-26T13:46:55;13.40;78.00
8103;DHT22;4094;49.948;11.574;2022-12-26T13:49:29;13.30;78.00
8103;DHT22;4094;49.948;11.574;2022-12-26T13:52:31;13.30;78.20
8103;DHT22;4094;49.948;11.574;2022-12-26T14:01:30;13.30;78.50
8103;DHT22;4094;49.948;11.574;2022-12-26T14:04:16;13.30;78.50
8103;DHT22;4094;49.948;11.574;2022-12-26T14:07:05;13.30;78.60
8103;DHT22;4094;49.948;11.574;2022-12-26T14:09:57;13.30;78.70
8103;DHT22;4094;49.948;11.574;2022-12-26T14:12:53;13.30;78.70
8103;DHT22;4094;49.948;11.574;2022-12-26T14:15:31;13.30;78.60
8103;DHT22;4094;49.948;11.574;2022-12-26T14:18:14;13.20;78.50
8103;DHT22;4094;49.948;11.574;2022-12-26T14:20:53;13.20;78.50
8103;DHT22;4094;49.948;11.574;2022-12-26T14:23:39;13.20;78.50
8103;DHT22;4094;49.948;11.574;2022-12-26T14:26:23;13.20;78.60
8103;DHT22;4094;49.948;11.574;2022-12-26T14:29:01;13.20;78.50
8103;DHT22;4094;49.948;11.574;2022-12-26T14:31:38;13.10;78.20
8103;DHT22;4094;49.948;11.574;2022-12-26T14:34:19;13.10;78.60
8103;DHT22;4094;49.948;11.574;2022-12-26T14:36:56;13.10;78.60
8103;DHT22;4094;49.948;11.574;2022-12-26T14:39:35;13.10;78.50
8103;DHT22;4094;49.948;11.574;2022-12-26T14:42:21;13.10;78.50
8103;DHT22;4094;49.948;11.574;2022-12-26T14:47:57;13.10;78.50
8103;DHT22;4094;49.948;11.574;2022-12-26T14:50:45;13.10;78.40
8103;DHT22;4094;49.948;11.574;2022-12-26T14:53:30;13.10;78.40
8103;DHT22;4094;49.948;11.574;2022-12-26T14:56:02;13.10;78.40
8103;DHT22;4094;49.948;11.574;2022-12-26T14:58:37;13.10;78.30
8103;DHT22;4094;49.948;11.574;2022-12-26T15:04:38;13.10;78.40
8103;DHT22;4094;49.948;11.574;2022-12-26T15:07:37;13.10;78.40
8103;DHT22;4094;49.948;11.574;2022-12-26T15:16:20;13.00;78.30
8103;DHT22;4094;49.948;11.574;2022-12-26T15:22:00;13.00;78.40
8103;DHT22;4094;49.948;11.574;2022-12-26T15:25:13;13.00;78.40
8103;DHT22;4094;49.948;11.574;2022-12-26T15:28:10;13.00;78.40
8103;DHT22;4094;49.948;11.574;2022-12-26T15:31:02;13.00;78.40
8103;DHT22;4094;49.948;11.574;2022-12-26T15:33:37;13.00;78.40
8103;DHT22;4094;49.948;11.574;2022-12-26T15:36:18;13.00;78.20
8103;DHT22;4094;49.948;11.574;2022-12-26T15:38:56;13.00;78.30
8103;DHT22;4094;49.948;11.574;2022-12-26T15:41:38;13.00;78.30
8103;DHT22;4094;49.948;11.574;2022-12-26T15:44:18;13.00;78.30
8103;DHT22;4094;49.948;11.574;2022-12-26T15:46:54;13.00;78.30
8103;DHT22;4094;49.948;11.574;2022-12-26T15:49:38;13.00;78.20
8103;DHT22;4094;49.948;11.574;2022-12-26T15:52:22;13.00;78.30
8103;DHT22;4094;49.948;11.574;2022-12-26T15:55:05;13.00;78.20
8103;DHT22;4094;49.948;11.574;2022-12-26T15:57:47;13.00;78.20
8103;DHT22;4094;49.948;11.574;2022-12-26T16:00:20;13.00;78.20
8103;DHT22;4094;49.948;11.574;2022-12-26T16:03:05;13.00;78.20
8103;DHT22;4094;49.948;11.574;2022-12-26T16:05:42;13.00;78.20
8103;DHT22;4094;49.948;11.574;2022-12-26T16:08:42;13.00;78.20
8103;DHT22;4094;49.948;11.574;2022-12-26T16:11:17;13.00;78.20
8103;DHT22;4094;49.948;11.574;2022-12-26T16:13:53;13.00;78.20
8103;DHT22;4094;49.948;11.574;2022-12-26T16:16:27;13.00;78.20
8103;DHT22;4094;49.948;11.574;2022-12-26T16:19:14;12.90;78.20
8103;DHT22;4094;49.948;11.574;2022-12-26T16:21:45;12.90;78.20
8103;DHT22;4094;49.948;11.574;2022-12-26T16:24:33;12.90;78.10
8103;DHT22;4094;49.948;11.574;2022-12-26T16:27:06;12.90;78.10
8103;DHT22;4094;49.948;11.574;2022-12-26T16:29:42;12.90;78.10
8103;DHT22;4094;49.948;11.574;2022-12-26T16:32:15;12.90;78.10
8103;DHT22;4094;49.948;11.574;2022-12-26T16:34:47;13.00;78.10
8103;DHT22;4094;49.948;11.574;2022-12-26T16:37:18;13.00;78.10
8103;DHT22;4094;49.948;11.574;2022-12-26T16:40:07;12.90;78.00
8103;DHT22;4094;49.948;11.574;2022-12-26T16:42:44;13.00;78.10
8103;DHT22;4094;49.948;11.574;2022-12-26T16:45:18;13.00;77.90
8103;DHT22;4094;49.948;11.574;2022-12-26T16:47:48;13.00;77.80
8103;DHT22;4094;49.948;11.574;2022-12-26T16:50:21;13.00;77.80
8103;DHT22;4094;49.948;11.574;2022-12-26T16:53:01;13.00;77.80
8103;DHT22;4094;49.948;11.574;2022-12-26T16:55:40;13.00;78.60
8103;DHT22;4094;49.948;11.574;2022-12-26T16:58:18;13.00;77.80
8103;DHT22;4094;49.948;11.574;2022-12-26T17:00:57;13.00;77.80
8103;DHT22;4094;49.948;11.574;2022-12-26T17:03:32;13.00;77.90
8103;DHT22;4094;49.948;11.574;2022-12-26T17:06:11;13.00;77.70
8103;DHT22;4094;49.948;11.574;2022-12-26T17:08:43;13.00;77.60
8103;DHT22;4094;49.948;11.574;2022-12-26T17:11:13;13.00;77.80
8103;DHT22;4094;49.948;11.574;2022-12-26T17:13:50;13.00;77.60
8103;DHT22;4094;49.948;11.574;2022-12-26T17:16:22;13.00;77.60
8103;DHT22;4094;49.948;11.574;2022-12-26T17:18:53;13.00;77.60
8103;DHT22;4094;49.948;11.574;2022-12-26T17:21:29;13.00;77.50
8103;DHT22;4094;49.948;11.574;2022-12-26T17:27:15;13.00;77.50
8103;DHT22;4094;49.948;11.574;2022-12-26T17:29:47;13.00;77.50
8103;DHT22;4094;49.948;11.574;2022-12-26T17:32:31;13.00;77.50